Ardara, Pennsylvania
Current Conditions -  °F | °C
As of 8:53 PM on Saturday 20 Dec 2014 (Local Time) from KAGC Reporting Station
Overcast Overcast  
Wind Chill: 28°   Ceiling: 3100
Heat Index: 28°   Visibility: 10mi
Dew Point: 18°   Wind: 3mph
Humidity: 66%   Direction: 340°NNW
Pressure: 30.24"   Gusts: NA
Location:  40.36°N, 79.73°W
Report Text: KAGC 210153Z 34003KT 10SM BKN031 OVC100 M02/M08 A3024 RMK AO2 SLP262 T10221078
Loading
Personal Weather Stations






























Interactive Weather Map New forecast layout! Learn more

10-Day Weather Forecast

Advertisements
Track Severe Weather on mobile